createdAt,value
2023-01-01T00:00:51.563Z,3.36
2023-01-01T00:03:20.145Z,3.35
2023-01-01T00:05:48.643Z,3.38
2023-01-01T00:08:17.269Z,3.39
2023-01-01T00:10:45.772Z,3.39
2023-01-01T00:13:15.505Z,3.41
2023-01-01T00:15:45.565Z,3.42
2023-01-01T00:18:14.027Z,3.45
2023-01-01T00:20:42.521Z,3.47
2023-01-01T00:23:10.922Z,3.49
2023-01-01T00:25:41.298Z,3.48
2023-01-01T00:28:10.234Z,3.44
2023-01-01T00:30:42.008Z,3.44
2023-01-01T00:33:12.088Z,3.49
2023-01-01T00:35:40.591Z,3.50
2023-01-01T00:38:09.365Z,3.52
2023-01-01T00:40:37.964Z,3.54
2023-01-01T00:43:06.426Z,3.53
2023-01-01T00:45:34.936Z,3.56
2023-01-01T00:48:03.552Z,3.57
2023-01-01T00:50:33.460Z,3.62
2023-01-01T00:53:02.073Z,3.59
2023-01-01T00:55:30.536Z,3.56
2023-01-01T00:57:59.155Z,3.62
2023-01-01T01:00:27.974Z,3.63
2023-01-01T01:02:56.605Z,3.61
2023-01-01T01:05:25.154Z,3.62
2023-01-01T01:07:55.193Z,3.66
2023-01-01T01:10:23.719Z,3.61
2023-01-01T01:12:52.196Z,3.63
2023-01-01T01:15:21.371Z,3.65
2023-01-01T01:17:49.909Z,3.63
2023-01-01T01:20:18.445Z,3.57
2023-01-01T01:22:48.347Z,3.67
2023-01-01T01:25:18.529Z,3.64
2023-01-01T01:27:47.424Z,3.65
2023-01-01T01:30:16.248Z,3.65
2023-01-01T01:32:44.710Z,3.61
2023-01-01T01:35:13.209Z,3.67
2023-01-01T01:37:41.702Z,3.67
2023-01-01T01:40:12.502Z,3.86
2023-01-01T01:42:47.315Z,3.75
2023-01-01T01:45:15.992Z,3.69
2023-01-01T01:47:50.852Z,3.63
2023-01-01T01:50:27.379Z,3.60
2023-01-01T01:53:06.246Z,3.79
2023-01-01T01:55:38.859Z,3.90
2023-01-01T01:58:11.076Z,3.88
2023-01-01T02:00:39.747Z,3.82
2023-01-01T02:03:10.808Z,3.88
2023-01-01T02:05:42.048Z,3.92
2023-01-01T02:08:14.731Z,3.96
2023-01-01T02:10:43.493Z,3.91
2023-01-01T02:13:13.493Z,3.88
2023-01-01T02:15:48.157Z,3.87
2023-01-01T02:18:21.645Z,3.82
2023-01-01T02:20:56.061Z,3.81
2023-01-01T02:23:48.616Z,3.74
2023-01-01T02:26:51.398Z,3.70
2023-01-01T02:29:39.338Z,3.62
2023-01-01T02:32:10.954Z,3.64
2023-01-01T02:34:43.220Z,3.62
2023-01-01T02:37:16.489Z,3.58
2023-01-01T02:39:50.390Z,3.57
2023-01-01T02:42:21.010Z,3.59
2023-01-01T02:44:53.972Z,3.63
2023-01-01T02:47:22.998Z,3.65
2023-01-01T02:49:58.833Z,3.65
2023-01-01T02:52:52.132Z,3.71
2023-01-01T02:55:33.223Z,3.63
2023-01-01T02:58:22.539Z,3.58
2023-01-01T03:00:58.171Z,3.63
2023-01-01T03:03:34.146Z,3.66
2023-01-01T03:06:24.204Z,3.69
2023-01-01T03:08:59.549Z,3.67
2023-01-01T03:11:36.986Z,3.70
2023-01-01T03:14:13.926Z,3.71
2023-01-01T03:16:48.932Z,3.75
2023-01-01T03:19:20.979Z,3.80
2023-01-01T03:21:53.103Z,3.81
2023-01-01T03:24:26.356Z,3.84
2023-01-01T03:26:59.029Z,3.84
2023-01-01T03:29:32.102Z,3.82
2023-01-01T03:32:05.997Z,3.85
2023-01-01T03:34:39.772Z,3.87
2023-01-01T03:37:12.280Z,3.89
2023-01-01T03:39:46.904Z,3.93
2023-01-01T03:42:23.225Z,3.98
2023-01-01T03:44:58.110Z,3.96
2023-01-01T03:47:28.078Z,3.96
2023-01-01T03:49:57.077Z,3.90
2023-01-01T03:52:35.950Z,3.89
2023-01-01T03:55:08.637Z,3.88
2023-01-01T03:57:45.748Z,3.92
2023-01-01T04:00:17.868Z,3.88
2023-01-01T04:02:52.283Z,3.82
2023-01-01T04:05:22.625Z,3.86
2023-01-01T04:07:53.671Z,3.85
2023-01-01T04:10:23.968Z,3.83
2023-01-01T04:12:54.636Z,3.80
2023-01-01T04:15:25.492Z,3.85
2023-01-01T04:17:56.846Z,3.81
2023-01-01T04:20:27.153Z,3.80
2023-01-01T04:22:58.788Z,3.82
2023-01-01T04:25:31.165Z,3.81
2023-01-01T04:28:02.607Z,3.80
2023-01-01T04:30:32.049Z,3.79
2023-01-01T04:33:02.396Z,3.77
2023-01-01T04:35:31.365Z,3.80
2023-01-01T04:38:03.071Z,3.80
2023-01-01T04:40:31.915Z,3.75
2023-01-01T04:43:00.610Z,3.79
2023-01-01T04:45:29.257Z,3.78
2023-01-01T04:47:57.867Z,3.77
2023-01-01T04:50:28.053Z,3.81
2023-01-01T04:52:56.816Z,3.85
2023-01-01T04:55:25.502Z,3.88
2023-01-01T04:57:54.207Z,3.97
2023-01-01T05:00:23.350Z,3.90
2023-01-01T05:02:52.313Z,3.84
2023-01-01T05:05:22.535Z,3.86
2023-01-01T05:07:53.677Z,3.91
2023-01-01T05:10:22.302Z,4.01
2023-01-01T05:12:50.914Z,3.98
2023-01-01T05:15:19.633Z,4.02
2023-01-01T05:17:48.313Z,4.02
2023-01-01T05:20:17.116Z,3.99
2023-01-01T05:22:47.484Z,3.99
2023-01-01T05:25:17.830Z,4.00
2023-01-01T05:27:46.469Z,3.98
2023-01-01T05:30:15.134Z,3.99
2023-01-01T05:32:43.857Z,3.99
2023-01-01T05:35:12.551Z,3.98
2023-01-01T05:37:41.341Z,3.90
2023-01-01T05:40:11.432Z,3.78
2023-01-01T05:42:41.542Z,3.69
2023-01-01T05:45:11.172Z,3.66
2023-01-01T05:47:39.793Z,3.65
2023-01-01T05:52:36.897Z,3.66
2023-01-01T05:55:06.076Z,3.66
2023-01-01T05:57:34.710Z,3.67
2023-01-01T06:00:05.110Z,3.69
2023-01-01T06:02:35.425Z,3.60
2023-01-01T06:05:04.180Z,3.60
2023-01-01T06:07:33.195Z,3.65
2023-01-01T06:10:02.088Z,3.70
2023-01-01T06:12:30.576Z,3.75
2023-01-01T06:14:59.292Z,3.75
2023-01-01T06:17:29.309Z,3.75
2023-01-01T06:19:57.988Z,3.71
2023-01-01T06:22:26.771Z,3.71
2023-01-01T06:24:55.484Z,3.64
2023-01-01T06:27:24.111Z,3.68
2023-01-01T06:29:52.948Z,3.69
2023-01-01T06:32:21.587Z,3.63
2023-01-01T06:34:51.785Z,3.68
2023-01-01T06:37:20.476Z,3.64
2023-01-01T06:39:49.332Z,3.69
2023-01-01T06:42:18.149Z,3.67
2023-01-01T06:44:46.807Z,3.66
2023-01-01T06:47:15.407Z,3.66
2023-01-01T06:49:47.069Z,3.65
2023-01-01T06:52:17.134Z,3.64
2023-01-01T06:54:47.366Z,3.62
2023-01-01T06:57:16.146Z,3.65
2023-01-01T06:59:44.716Z,3.61
2023-01-01T07:02:13.588Z,3.60
2023-01-01T07:04:42.877Z,3.57
2023-01-01T07:07:11.909Z,3.61
2023-01-01T07:09:41.975Z,3.58
2023-01-01T07:12:10.771Z,3.60
2023-01-01T07:14:39.276Z,3.61
2023-01-01T07:17:07.953Z,3.57
2023-01-01T07:19:36.620Z,3.59
2023-01-01T07:22:05.167Z,3.62
2023-01-01T07:24:33.783Z,3.63
2023-01-01T07:27:03.928Z,3.64
2023-01-01T07:29:33.714Z,3.58
2023-01-01T07:32:04.196Z,3.49
2023-01-01T07:34:32.891Z,3.49
2023-01-01T07:37:01.870Z,3.53
2023-01-01T07:39:30.588Z,3.56
2023-01-01T07:41:59.268Z,3.63
2023-01-01T07:44:29.482Z,3.63
2023-01-01T07:47:03.986Z,3.59
2023-01-01T07:49:33.451Z,3.62
2023-01-01T07:52:02.028Z,3.57
2023-01-01T07:54:30.754Z,3.60
2023-01-01T07:56:59.321Z,3.51
2023-01-01T07:59:29.477Z,3.32
2023-01-01T08:01:58.251Z,3.32
2023-01-01T08:04:27.098Z,3.34
2023-01-01T08:06:56.143Z,3.40
2023-01-01T08:09:24.823Z,3.43
2023-01-01T08:11:54.593Z,3.48
2023-01-01T08:14:23.169Z,3.46
2023-01-01T08:16:53.298Z,3.50
2023-01-01T08:19:21.888Z,3.56
2023-01-01T08:21:50.454Z,3.49
2023-01-01T08:24:19.151Z,3.40
2023-01-01T08:26:52.737Z,3.34
2023-01-01T08:29:22.090Z,3.31
2023-01-01T08:31:50.729Z,3.34
2023-01-01T08:34:21.659Z,3.34
2023-01-01T08:36:50.594Z,3.34
2023-01-01T08:39:19.161Z,3.40
2023-01-01T08:41:48.168Z,3.40
2023-01-01T08:44:17.731Z,3.55
2023-01-01T08:46:46.590Z,3.61
2023-01-01T08:49:15.089Z,3.61
2023-01-01T08:51:45.240Z,3.63
2023-01-01T08:54:20.379Z,3.67
2023-01-01T08:56:49.005Z,3.62
2023-01-01T08:59:17.533Z,3.64
2023-01-01T09:01:46.154Z,3.63
2023-01-01T09:04:15.964Z,3.66
2023-01-01T09:06:46.080Z,3.63
2023-01-01T09:09:14.651Z,3.72
2023-01-01T09:11:52.200Z,3.62
2023-01-01T09:14:21.770Z,3.62
2023-01-01T09:16:50.657Z,3.69
2023-01-01T09:19:20.174Z,3.73
2023-01-01T09:21:50.512Z,3.70
2023-01-01T09:24:19.125Z,3.70
2023-01-01T09:26:47.949Z,3.69
2023-01-01T09:29:18.908Z,3.64
2023-01-01T09:31:47.460Z,3.65
2023-01-01T09:34:16.895Z,3.60
2023-01-01T09:36:46.151Z,3.40
2023-01-01T09:39:17.449Z,3.32
2023-01-01T09:42:03.004Z,3.23
2023-01-01T09:44:54.569Z,3.21
2023-01-01T09:47:27.532Z,3.15
2023-01-01T09:50:00.911Z,3.13
2023-01-01T09:52:41.438Z,3.18
2023-01-01T09:55:27.871Z,3.12
2023-01-01T09:57:58.050Z,3.11
2023-01-01T10:00:26.949Z,3.04
2023-01-01T10:03:33.251Z,3.00
2023-01-01T10:06:15.003Z,2.93
2023-01-01T10:08:57.608Z,2.96
2023-01-01T10:11:37.014Z,2.85
2023-01-01T10:14:15.723Z,2.82
2023-01-01T10:16:47.342Z,2.74
2023-01-01T10:19:31.783Z,2.76
2023-01-01T10:22:04.896Z,2.87
2023-01-01T10:24:41.736Z,2.70
2023-01-01T10:27:24.936Z,2.65
2023-01-01T10:29:58.125Z,2.73
2023-01-01T10:32:35.492Z,2.71
2023-01-01T10:35:12.527Z,2.84
2023-01-01T10:37:42.051Z,2.77
2023-01-01T10:40:18.366Z,2.91
2023-01-01T10:42:56.274Z,2.85
2023-01-01T10:45:33.133Z,2.67
2023-01-01T10:48:17.460Z,2.73
2023-01-01T10:50:49.874Z,2.57
2023-01-01T10:53:31.539Z,2.46
2023-01-01T10:56:11.572Z,2.51
2023-01-01T10:58:45.222Z,2.49
2023-01-01T11:01:21.162Z,2.47
2023-01-01T11:03:59.891Z,2.57
2023-01-01T11:06:33.210Z,2.53
2023-01-01T11:09:07.685Z,2.50
2023-01-01T11:11:43.253Z,2.42
2023-01-01T11:14:27.085Z,2.35
2023-01-01T11:16:57.485Z,2.36
2023-01-01T11:19:30.909Z,2.32
2023-01-01T11:21:59.988Z,2.32
2023-01-01T11:24:30.189Z,2.28
2023-01-01T11:27:15.302Z,2.26
2023-01-01T11:29:45.452Z,2.22
2023-01-01T11:32:20.643Z,2.22
2023-01-01T11:35:02.222Z,2.28
2023-01-01T11:37:34.307Z,2.27
2023-01-01T11:40:04.441Z,2.26
2023-01-01T11:42:35.492Z,2.20
2023-01-01T11:45:07.632Z,2.14
2023-01-01T11:47:38.694Z,2.19
2023-01-01T11:50:16.274Z,2.16
2023-01-01T11:52:48.295Z,2.17
2023-01-01T11:55:23.890Z,2.21
2023-01-01T11:58:01.168Z,2.14
2023-01-01T12:00:35.903Z,2.14
2023-01-01T12:03:14.558Z,2.12
2023-01-01T12:05:50.569Z,2.10
2023-01-01T12:08:26.989Z,2.04
2023-01-01T12:11:00.601Z,2.01
2023-01-01T12:13:35.952Z,2.03
2023-01-01T12:16:14.183Z,2.05
2023-01-01T12:18:48.336Z,2.03
2023-01-01T12:21:24.246Z,2.01
2023-01-01T12:23:53.331Z,2.00
2023-01-01T12:26:26.055Z,1.98
2023-01-01T12:29:29.335Z,1.93
2023-01-01T12:32:08.129Z,1.89
2023-01-01T12:34:43.702Z,1.90
2023-01-01T12:37:22.766Z,1.89
2023-01-01T12:40:25.113Z,1.84
2023-01-01T12:43:02.956Z,1.79
2023-01-01T12:46:02.462Z,1.77
2023-01-01T12:48:53.507Z,1.80
2023-01-01T12:51:32.932Z,1.77
2023-01-01T12:54:32.394Z,1.72
2023-01-01T12:57:09.792Z,1.71
2023-01-01T12:59:42.697Z,1.76
2023-01-01T13:02:18.407Z,1.71
2023-01-01T13:04:51.633Z,1.65
2023-01-01T13:07:28.079Z,1.64
2023-01-01T13:09:58.620Z,1.58
2023-01-01T13:12:27.972Z,1.58
2023-01-01T13:14:56.704Z,1.60
2023-01-01T13:17:28.516Z,1.55
2023-01-01T13:20:00.892Z,1.50
2023-01-01T13:22:44.331Z,1.54
2023-01-01T13:25:26.759Z,1.52
2023-01-01T13:28:16.062Z,1.48
2023-01-01T13:30:51.519Z,1.55
2023-01-01T13:33:27.507Z,1.56
2023-01-01T13:36:34.973Z,1.58
2023-01-01T13:39:03.804Z,1.55
2023-01-01T13:41:40.831Z,1.50
2023-01-01T13:44:23.474Z,1.43
2023-01-01T13:47:11.538Z,1.43
2023-01-01T13:50:04.984Z,1.39
2023-01-01T13:53:01.559Z,1.37
2023-01-01T13:55:52.114Z,1.36
2023-01-01T13:58:50.023Z,1.34
2023-01-01T14:01:43.852Z,1.32
2023-01-01T14:04:22.630Z,1.31
2023-01-01T14:06:55.040Z,1.27
2023-01-01T14:09:27.484Z,1.29
2023-01-01T14:11:56.269Z,1.28
2023-01-01T14:14:29.127Z,1.27
2023-01-01T14:17:01.556Z,1.28
2023-01-01T14:19:31.740Z,1.28
2023-01-01T14:22:01.546Z,1.27
2023-01-01T14:24:31.659Z,1.25
2023-01-01T14:27:00.523Z,1.22
2023-01-01T14:29:32.667Z,1.23
2023-01-01T14:32:13.324Z,1.22
2023-01-01T14:34:43.067Z,1.20
2023-01-01T14:37:24.808Z,1.19
2023-01-01T14:40:10.881Z,1.19
2023-01-01T14:42:41.318Z,1.19
2023-01-01T14:45:16.679Z,1.19
2023-01-01T14:47:50.605Z,1.18
2023-01-01T14:50:25.815Z,1.18
2023-01-01T14:52:58.479Z,1.16
2023-01-01T14:55:35.069Z,1.15
2023-01-01T14:58:05.557Z,1.14
2023-01-01T15:00:35.596Z,1.14
2023-01-01T15:03:13.198Z,1.13
2023-01-01T15:05:44.105Z,1.11
2023-01-01T15:08:21.862Z,1.19
2023-01-01T15:10:52.085Z,1.19
2023-01-01T15:13:23.011Z,1.17
2023-01-01T15:15:53.065Z,1.19
2023-01-01T15:18:43.260Z,1.28
2023-01-01T15:21:18.094Z,1.24
2023-01-01T15:23:55.220Z,1.28
2023-01-01T15:26:35.762Z,1.25
2023-01-01T15:29:10.741Z,1.21
2023-01-01T15:31:42.882Z,1.19
2023-01-01T15:34:32.060Z,1.00
2023-01-01T15:37:10.682Z,1.00
2023-01-01T15:39:54.321Z,1.01
2023-01-01T15:42:37.379Z,0.95
2023-01-01T15:45:17.260Z,0.93
2023-01-01T15:47:46.602Z,0.95
2023-01-01T15:50:28.721Z,0.96
2023-01-01T15:53:00.961Z,0.97
2023-01-01T15:55:33.036Z,0.96
2023-01-01T15:58:05.259Z,0.94
2023-01-01T16:00:38.674Z,0.91
2023-01-01T16:03:21.189Z,0.86
2023-01-01T16:05:53.226Z,0.88
2023-01-01T16:08:26.076Z,0.90
2023-01-01T16:10:55.778Z,0.91
2023-01-01T16:13:26.057Z,0.89
2023-01-01T16:15:58.258Z,0.86
2023-01-01T16:18:31.090Z,0.84
2023-01-01T16:21:01.118Z,0.82
2023-01-01T16:23:30.123Z,0.81
2023-01-01T16:25:59.050Z,0.80
2023-01-01T16:28:29.152Z,0.78
2023-01-01T16:30:58.960Z,0.77
2023-01-01T16:33:27.675Z,0.76
2023-01-01T16:35:56.152Z,0.73
2023-01-01T16:38:24.591Z,0.75
2023-01-01T16:40:55.554Z,0.75
2023-01-01T16:43:24.069Z,0.74
2023-01-01T16:45:55.245Z,0.76
2023-01-01T16:48:24.154Z,0.79
2023-01-01T16:50:53.458Z,0.77
2023-01-01T16:53:22.134Z,0.79
2023-01-01T16:55:52.821Z,0.79
2023-01-01T16:58:48.461Z,0.82
2023-01-01T17:01:12.132Z,0.84
2023-01-01T17:03:40.625Z,0.86
2023-01-01T17:06:11.591Z,0.85
2023-01-01T17:08:40.996Z,0.82
2023-01-01T17:11:14.091Z,0.85
2023-01-01T17:13:42.937Z,0.86
2023-01-01T17:16:17.865Z,0.88
2023-01-01T17:19:14.554Z,0.94
2023-01-01T17:21:41.425Z,0.94
2023-01-01T17:24:10.218Z,0.94
2023-01-01T17:26:38.793Z,0.92
2023-01-01T17:29:08.107Z,0.93
2023-01-01T17:31:38.371Z,0.93
2023-01-01T17:34:10.780Z,0.90
2023-01-01T17:36:42.631Z,0.90
2023-01-01T17:39:12.275Z,0.90
2023-01-01T17:41:41.619Z,0.86
2023-01-01T17:44:11.494Z,0.89
2023-01-01T17:46:42.720Z,0.89
2023-01-01T17:49:11.876Z,0.90
2023-01-01T17:51:40.558Z,0.88
2023-01-01T17:54:13.367Z,0.85
2023-01-01T17:56:42.394Z,0.83
2023-01-01T17:59:11.610Z,0.82
2023-01-01T18:01:42.359Z,0.81
2023-01-01T18:04:11.851Z,0.80
2023-01-01T18:06:43.636Z,0.80
2023-01-01T18:09:16.476Z,0.76
2023-01-01T18:11:45.613Z,0.76
2023-01-01T18:14:18.373Z,0.70
2023-01-01T18:16:51.164Z,0.64
2023-01-01T18:19:20.070Z,0.61
2023-01-01T18:21:48.896Z,0.56
2023-01-01T18:24:17.990Z,0.55
2023-01-01T18:26:46.582Z,0.52
2023-01-01T18:29:15.538Z,0.52
2023-01-01T18:31:45.607Z,0.38
2023-01-01T18:34:16.363Z,0.32
2023-01-01T18:36:47.400Z,0.20
2023-01-01T18:39:21.764Z,0.11
2023-01-01T18:42:13.360Z,0.07
2023-01-01T18:44:43.634Z,0.06
2023-01-01T18:47:17.620Z,0.03
2023-01-01T18:49:49.992Z,-0.05
2023-01-01T18:52:23.420Z,-0.13
2023-01-01T18:55:04.225Z,-0.17
2023-01-01T18:57:33.184Z,-0.22
2023-01-01T19:00:05.111Z,-0.25
2023-01-01T19:02:39.243Z,-0.24
2023-01-01T19:05:18.816Z,-0.29
2023-01-01T19:07:52.183Z,-0.32
2023-01-01T19:10:20.706Z,-0.33
2023-01-01T19:12:54.906Z,-0.35
2023-01-01T19:15:24.122Z,-0.45
2023-01-01T19:17:55.423Z,-0.47
2023-01-01T19:20:25.889Z,-0.52
2023-01-01T19:22:54.349Z,-0.55
2023-01-01T19:25:38.333Z,-0.56
2023-01-01T19:28:37.244Z,-0.56
2023-01-01T19:31:07.704Z,-0.55
2023-01-01T19:33:36.278Z,-0.57
2023-01-01T19:36:06.960Z,-0.56
2023-01-01T19:38:35.574Z,-0.56
2023-01-01T19:41:04.207Z,-0.57
2023-01-01T19:43:32.758Z,-0.56
2023-01-01T19:46:01.241Z,-0.59
2023-01-01T19:48:30.333Z,-0.57
2023-01-01T19:50:59.489Z,-0.58
2023-01-01T19:53:29.403Z,-0.58
2023-01-01T19:55:57.922Z,-0.60
2023-01-01T19:58:26.775Z,-0.54
2023-01-01T20:00:55.441Z,-0.51
2023-01-01T20:06:13.564Z,-0.49
2023-01-01T20:08:43.426Z,-0.50
2023-01-01T20:11:11.972Z,-0.50
2023-01-01T20:13:40.429Z,-0.50
2023-01-01T20:16:09.771Z,-0.48
2023-01-01T20:18:38.421Z,-0.51
2023-01-01T20:21:26.663Z,-0.53
2023-01-01T20:23:57.384Z,-0.51
2023-01-01T20:26:26.318Z,-0.51
2023-01-01T20:29:12.207Z,-0.48
2023-01-01T20:31:40.898Z,-0.49
2023-01-01T20:34:09.402Z,-0.48
2023-01-01T20:36:55.423Z,-0.50
2023-01-01T20:39:25.442Z,-0.50
2023-01-01T20:41:54.061Z,-0.51
2023-01-01T20:44:22.728Z,-0.55
2023-01-01T20:46:51.317Z,-0.53
2023-01-01T20:49:20.994Z,-0.55
2023-01-01T20:51:51.423Z,-0.56
2023-01-01T20:54:20.581Z,-0.58
2023-01-01T20:56:51.135Z,-0.59
2023-01-01T20:59:36.869Z,-0.61
2023-01-01T21:02:07.514Z,-0.65
2023-01-01T21:04:39.026Z,-0.68
2023-01-01T21:07:09.700Z,-0.66
2023-01-01T21:09:39.135Z,-0.59
2023-01-01T21:12:09.835Z,-0.60
2023-01-01T21:14:38.442Z,-0.62
2023-01-01T21:17:21.410Z,-0.65
2023-01-01T21:19:50.382Z,-0.72
2023-01-01T21:22:18.872Z,-0.72
2023-01-01T21:24:53.584Z,-0.69
2023-01-01T21:27:30.745Z,-0.67
2023-01-01T21:30:00.024Z,-0.68
2023-01-01T21:32:34.706Z,-0.65
2023-01-01T21:35:03.382Z,-0.66
2023-01-01T21:37:50.239Z,-0.66
2023-01-01T21:40:40.409Z,-0.71
2023-01-01T21:43:29.294Z,-0.69
2023-01-01T21:46:03.833Z,-0.70
2023-01-01T21:48:35.116Z,-0.73
2023-01-01T21:51:04.306Z,-0.72
2023-01-01T21:53:36.227Z,-0.78
2023-01-01T21:56:19.494Z,-0.79
2023-01-01T21:59:06.816Z,-0.81
2023-01-01T22:01:39.955Z,-0.82
2023-01-01T22:04:22.115Z,-0.85
2023-01-01T22:06:52.926Z,-0.88
2023-01-01T22:09:25.071Z,-0.85
2023-01-01T22:11:58.412Z,-0.85
2023-01-01T22:14:38.188Z,-0.88
2023-01-01T22:17:15.668Z,-0.91
2023-01-01T22:19:46.443Z,-0.90
2023-01-01T22:22:16.650Z,-1.03
2023-01-01T22:24:53.450Z,-0.98
2023-01-01T22:27:29.373Z,-1.13
2023-01-01T22:30:35.317Z,-1.09
2023-01-01T22:33:12.466Z,-1.04
2023-01-01T22:35:41.428Z,-1.09
2023-01-01T22:38:19.748Z,-1.00
2023-01-01T22:40:53.575Z,-0.99
2023-01-01T22:43:29.182Z,-1.00
2023-01-01T22:46:03.091Z,-0.94
2023-01-01T22:48:36.329Z,-0.94
2023-01-01T22:51:09.483Z,-0.87
2023-01-01T22:53:38.334Z,-0.86
2023-01-01T22:56:07.390Z,-0.79
2023-01-01T22:58:36.141Z,-0.87
2023-01-01T23:01:06.523Z,-0.86
2023-01-01T23:03:35.511Z,-0.86
2023-01-01T23:06:05.320Z,-0.90
2023-01-01T23:08:34.214Z,-0.80
2023-01-01T23:11:03.278Z,-0.87
2023-01-01T23:13:49.215Z,-0.89
2023-01-01T23:16:19.579Z,-0.91
2023-01-01T23:18:49.716Z,-0.91
2023-01-01T23:21:26.817Z,-0.97
2023-01-01T23:24:00.681Z,-0.99
2023-01-01T23:26:29.682Z,-1.04
2023-01-01T23:28:58.632Z,-1.09
2023-01-01T23:31:32.954Z,-1.14
2023-01-01T23:34:02.289Z,-1.24
2023-01-01T23:36:31.455Z,-1.33
2023-01-01T23:39:03.053Z,-1.38
2023-01-01T23:41:35.041Z,-1.37
2023-01-01T23:44:03.805Z,-1.39
2023-01-01T23:46:37.102Z,-1.37
2023-01-01T23:49:08.217Z,-1.39
2023-01-01T23:51:37.699Z,-1.41
2023-01-01T23:54:06.660Z,-1.44
2023-01-01T23:56:38.753Z,-1.48
2023-01-01T23:59:07.629Z,-1.50
